createdAt,value
2019-04-04T00:01:17.104Z,12.80
2019-04-04T00:03:45.878Z,12.80
2019-04-04T00:06:14.345Z,12.70
2019-04-04T00:08:42.800Z,12.70
2019-04-04T00:11:11.291Z,12.60
2019-04-04T00:13:41.696Z,12.50
2019-04-04T00:16:09.949Z,12.50
2019-04-04T00:18:38.433Z,12.60
2019-04-04T00:21:06.877Z,12.60
2019-04-04T00:23:37.788Z,12.50
2019-04-04T00:26:05.529Z,12.50
2019-04-04T00:28:34.054Z,12.50
2019-04-04T00:31:02.527Z,12.50
2019-04-04T00:33:31.046Z,12.50
2019-04-04T00:36:00.695Z,12.50
2019-04-04T00:38:29.703Z,12.50
2019-04-04T00:40:58.149Z,12.50
2019-04-04T00:43:26.608Z,12.50
2019-04-04T00:45:55.057Z,12.50
2019-04-04T00:48:23.519Z,12.40
2019-04-04T00:50:51.958Z,12.40
2019-04-04T00:53:20.448Z,12.30
2019-04-04T00:55:48.959Z,12.30
2019-04-04T00:58:18.918Z,12.30
2019-04-04T01:00:47.587Z,12.20
2019-04-04T01:03:16.050Z,12.30
2019-04-04T01:05:44.507Z,12.20
2019-04-04T01:08:12.958Z,12.10
2019-04-04T01:10:41.424Z,12.10
2019-04-04T01:13:09.881Z,12.10
2019-04-04T01:15:38.345Z,12.00
2019-04-04T01:18:06.879Z,11.90
2019-04-04T01:20:35.335Z,12.00
2019-04-04T01:23:03.802Z,12.00
2019-04-04T01:25:32.835Z,11.90
2019-04-04T01:28:01.286Z,11.90
2019-04-04T01:30:29.750Z,11.80
2019-04-04T01:32:58.289Z,11.80
2019-04-04T01:35:26.829Z,11.80
2019-04-04T01:37:56.106Z,11.80
2019-04-04T01:40:25.464Z,11.80
2019-04-04T01:42:53.944Z,11.70
2019-04-04T01:45:22.384Z,11.70
2019-04-04T01:47:50.836Z,11.60
2019-04-04T01:50:22.459Z,11.60
2019-04-04T01:52:49.493Z,11.60
2019-04-04T01:55:17.957Z,11.50
2019-04-04T01:57:46.450Z,11.50
2019-04-04T02:00:15.844Z,11.50
2019-04-04T02:02:44.370Z,11.50
2019-04-04T02:05:12.897Z,11.40
2019-04-04T02:07:41.331Z,11.40
2019-04-04T02:10:10.031Z,11.40
2019-04-04T02:12:39.196Z,11.40
2019-04-04T02:15:10.133Z,11.30
2019-04-04T02:17:38.649Z,11.30
2019-04-04T02:20:07.572Z,11.20
2019-04-04T02:22:36.080Z,11.10
2019-04-04T02:25:06.596Z,11.10
2019-04-04T02:27:37.593Z,11.10
2019-04-04T02:30:07.264Z,11.10
2019-04-04T02:32:35.752Z,11.10
2019-04-04T02:35:10.290Z,11.10
2019-04-04T02:37:36.320Z,11.10
2019-04-04T02:40:08.990Z,11.10
2019-04-04T02:42:37.058Z,11.10
2019-04-04T02:45:06.608Z,11.10
2019-04-04T02:47:35.184Z,11.00
2019-04-04T02:50:04.581Z,11.00
2019-04-04T02:52:33.029Z,11.00
2019-04-04T02:55:01.482Z,10.90
2019-04-04T02:57:29.934Z,10.90
2019-04-04T02:59:58.390Z,10.90
2019-04-04T03:02:26.830Z,10.80
2019-04-04T03:04:55.303Z,10.80
2019-04-04T03:07:23.752Z,10.80
2019-04-04T03:09:52.225Z,10.80
2019-04-04T03:12:20.674Z,10.70
2019-04-04T03:14:50.661Z,10.70
2019-04-04T03:17:19.396Z,10.60
2019-04-04T03:19:47.899Z,10.60
2019-04-04T03:22:16.349Z,10.50
2019-04-04T03:24:45.250Z,10.50
2019-04-04T03:27:13.806Z,10.50
2019-04-04T03:29:42.275Z,10.50
2019-04-04T03:32:14.769Z,10.50
2019-04-04T03:34:47.988Z,10.40
2019-04-04T03:37:12.470Z,10.50
2019-04-04T03:39:41.112Z,10.50
2019-04-04T03:42:09.550Z,10.40
2019-04-04T03:44:38.014Z,10.40
2019-04-04T03:47:09.878Z,10.40
2019-04-04T03:49:36.657Z,10.40
2019-04-04T03:52:05.144Z,10.40
2019-04-04T03:54:33.669Z,10.40
2019-04-04T03:57:02.226Z,10.40
2019-04-04T03:59:32.268Z,10.30
2019-04-04T04:02:00.907Z,10.30
2019-04-04T04:04:29.432Z,10.30
2019-04-04T04:06:57.895Z,10.30
2019-04-04T04:09:27.253Z,10.30
2019-04-04T04:11:55.894Z,10.30
2019-04-04T04:14:24.341Z,10.20
2019-04-04T04:16:52.829Z,10.20
2019-04-04T04:19:24.155Z,10.20
2019-04-04T04:21:51.535Z,10.20
2019-04-04T04:24:20.004Z,10.10
2019-04-04T04:26:48.477Z,10.10
2019-04-04T04:29:16.962Z,10.10
2019-04-04T04:31:48.340Z,10.10
2019-04-04T04:34:15.597Z,10.10
2019-04-04T04:36:47.676Z,10.10
2019-04-04T04:39:14.245Z,10.10
2019-04-04T04:41:42.716Z,10.10
2019-04-04T04:44:11.167Z,10.10
2019-04-04T04:46:39.719Z,10.10
2019-04-04T04:49:08.185Z,10.10
2019-04-04T04:51:36.658Z,10.10
2019-04-04T04:54:05.110Z,10.10
2019-04-04T04:56:33.587Z,10.10
2019-04-04T04:59:02.092Z,10.10
2019-04-04T05:01:30.572Z,10.10
2019-04-04T05:03:59.082Z,10.10
2019-04-04T05:06:27.550Z,10.20
2019-04-04T05:08:55.998Z,10.10
2019-04-04T05:11:24.461Z,10.10
2019-04-04T05:13:52.925Z,10.10
2019-04-04T05:16:21.461Z,10.10
2019-04-04T05:18:49.911Z,10.10
2019-04-04T05:21:24.955Z,10.10
2019-04-04T05:23:48.609Z,10.10
2019-04-04T05:26:17.150Z,10.20
2019-04-04T05:28:45.621Z,10.20
2019-04-04T05:31:14.191Z,10.20
2019-04-04T05:33:42.633Z,10.20
2019-04-04T05:36:11.106Z,10.30
2019-04-04T05:38:42.750Z,10.30
2019-04-04T05:41:09.754Z,10.30
2019-04-04T05:43:38.216Z,10.40
2019-04-04T05:46:06.749Z,10.50
2019-04-04T05:48:35.213Z,10.50
2019-04-04T05:51:03.660Z,10.60
2019-04-04T05:53:35.163Z,10.80
2019-04-04T05:56:02.290Z,11.20
2019-04-04T05:58:30.781Z,11.60
2019-04-04T06:01:01.499Z,12.00
2019-04-04T06:03:29.715Z,12.20
2019-04-04T06:06:01.033Z,12.30
2019-04-04T06:08:28.450Z,12.20
2019-04-04T06:10:56.914Z,12.30
2019-04-04T06:13:27.056Z,12.70
2019-04-04T06:15:55.549Z,13.10
2019-04-04T06:18:24.015Z,13.40
2019-04-04T06:20:52.456Z,13.80
2019-04-04T06:23:20.918Z,14.00
2019-04-04T06:25:49.371Z,14.20
2019-04-04T06:28:17.905Z,14.20
2019-04-04T06:30:46.387Z,14.60
2019-04-04T06:33:14.918Z,14.90
2019-04-04T06:35:47.041Z,15.20
2019-04-04T06:38:13.647Z,15.40
2019-04-04T06:40:42.291Z,15.10
2019-04-04T06:43:11.759Z,15.20
2019-04-04T06:45:40.384Z,15.40
2019-04-04T06:48:08.858Z,15.30
2019-04-04T06:50:39.996Z,15.30
2019-04-04T06:53:07.483Z,15.00
2019-04-04T06:55:39.907Z,15.00
2019-04-04T06:58:08.217Z,15.30
2019-04-04T07:00:36.286Z,15.60
2019-04-04T07:03:04.788Z,15.70
2019-04-04T07:05:33.241Z,15.60
2019-04-04T07:08:01.741Z,15.40
2019-04-04T07:10:30.182Z,15.70
2019-04-04T07:13:09.642Z,16.20
2019-04-04T07:15:28.925Z,16.50
2019-04-04T07:17:57.380Z,16.50
2019-04-04T07:20:28.254Z,16.30
2019-04-04T07:22:56.365Z,16.10
2019-04-04T07:25:24.885Z,16.10
2019-04-04T07:27:53.349Z,15.70
2019-04-04T07:30:21.822Z,16.00
2019-04-04T07:32:50.274Z,15.70
2019-04-04T07:35:21.077Z,15.50
2019-04-04T07:37:49.004Z,15.10
2019-04-04T07:40:20.186Z,14.80
2019-04-04T07:42:48.205Z,14.80
2019-04-04T07:45:16.798Z,14.70
2019-04-04T07:47:47.474Z,14.60
2019-04-04T07:50:15.425Z,14.50
2019-04-04T07:52:43.879Z,14.50
2019-04-04T07:55:12.397Z,14.60
2019-04-04T07:57:40.955Z,14.60
2019-04-04T08:00:09.605Z,14.60
2019-04-04T08:02:38.050Z,14.70
2019-04-04T08:05:09.552Z,14.80
2019-04-04T08:07:37.989Z,14.70
2019-04-04T08:10:19.512Z,14.70
2019-04-04T08:12:37.346Z,14.80
2019-04-04T08:15:07.846Z,14.80
2019-04-04T08:17:36.352Z,14.80
2019-04-04T08:20:06.359Z,15.00
2019-04-04T08:22:34.799Z,15.10
2019-04-04T08:25:03.682Z,15.30
2019-04-04T08:27:32.123Z,15.10
2019-04-04T08:30:00.579Z,15.30
2019-04-04T08:32:29.023Z,15.40
2019-04-04T08:34:57.508Z,15.40
2019-04-04T08:37:26.039Z,15.70
2019-04-04T08:39:54.490Z,15.80
2019-04-04T08:42:22.950Z,15.90
2019-04-04T08:44:51.403Z,15.60
2019-04-04T08:47:19.879Z,15.70
2019-04-04T08:49:48.401Z,15.60
2019-04-04T08:52:20.558Z,15.70
2019-04-04T08:54:47.087Z,15.70
2019-04-04T08:57:15.542Z,15.70
2019-04-04T08:59:43.998Z,15.80
2019-04-04T09:02:12.464Z,15.90
2019-04-04T09:04:40.923Z,16.00
2019-04-04T09:07:09.438Z,16.10
2019-04-04T09:09:37.972Z,16.10
2019-04-04T09:12:06.557Z,16.00
2019-04-04T09:14:35.002Z,16.00
2019-04-04T09:17:03.547Z,16.10
2019-04-04T09:19:32.002Z,16.30
2019-04-04T09:22:00.475Z,16.40
2019-04-04T09:24:28.923Z,16.50
2019-04-04T09:26:57.394Z,16.60
2019-04-04T09:29:25.848Z,16.70
2019-04-04T09:31:54.371Z,16.80
2019-04-04T09:34:22.802Z,16.80
2019-04-04T09:36:51.276Z,16.80
2019-04-04T09:39:19.706Z,16.90
2019-04-04T09:41:48.174Z,16.90
2019-04-04T09:44:16.611Z,17.00
2019-04-04T09:46:45.137Z,17.00
2019-04-04T09:49:13.596Z,17.10
2019-04-04T09:51:42.053Z,17.10
2019-04-04T09:54:10.515Z,17.10
2019-04-04T09:56:38.961Z,17.20
2019-04-04T09:59:07.402Z,17.20
2019-04-04T10:01:35.872Z,17.30
2019-04-04T10:04:04.389Z,17.20
2019-04-04T10:06:32.943Z,17.30
2019-04-04T10:09:14.683Z,17.40
2019-04-04T10:11:31.581Z,17.50
2019-04-04T10:14:00.018Z,17.70
2019-04-04T10:16:28.489Z,17.80
2019-04-04T10:18:56.921Z,17.80
2019-04-04T10:21:25.411Z,17.80
2019-04-04T10:23:53.935Z,17.90
2019-04-04T10:26:22.455Z,17.90
2019-04-04T10:28:50.902Z,17.90
2019-04-04T10:31:19.359Z,17.90
2019-04-04T10:33:47.890Z,17.90
2019-04-04T10:36:16.361Z,18.10
2019-04-04T10:38:45.241Z,18.20
2019-04-04T10:41:13.802Z,18.30
2019-04-04T10:43:42.250Z,18.20
2019-04-04T10:46:10.733Z,18.20
2019-04-04T10:48:39.243Z,18.20
2019-04-04T10:51:07.686Z,18.30
2019-04-04T10:53:36.164Z,18.20
2019-04-04T10:56:04.678Z,18.30
2019-04-04T10:58:33.179Z,18.40
2019-04-04T11:01:01.613Z,18.50
2019-04-04T11:03:30.098Z,18.60
2019-04-04T11:05:58.539Z,18.70
2019-04-04T11:08:27.021Z,18.90
2019-04-04T11:10:55.449Z,19.00
2019-04-04T11:13:33.321Z,19.10
2019-04-04T11:15:54.076Z,19.30
2019-04-04T11:18:22.546Z,19.20
2019-04-04T11:20:51.062Z,19.10
2019-04-04T11:23:19.521Z,19.20
2019-04-04T11:25:47.978Z,19.40
2019-04-04T11:28:16.459Z,19.50
2019-04-04T11:30:44.889Z,19.60
2019-04-04T11:33:13.334Z,19.70
2019-04-04T11:35:41.832Z,19.80
2019-04-04T11:38:10.266Z,19.90
2019-04-04T11:40:38.740Z,20.00
2019-04-04T11:43:07.184Z,19.90
2019-04-04T11:45:35.700Z,19.90
2019-04-04T11:48:04.145Z,19.80
2019-04-04T11:50:32.594Z,19.90
2019-04-04T11:53:01.068Z,19.90
2019-04-04T11:55:29.573Z,19.90
2019-04-04T11:57:58.020Z,20.00
2019-04-04T12:00:28.118Z,20.00
2019-04-04T12:02:56.572Z,20.10
2019-04-04T12:05:25.052Z,20.10
2019-04-04T12:07:53.524Z,20.10
2019-04-04T12:10:22.041Z,19.90
2019-04-04T12:12:50.492Z,20.00
2019-04-04T12:15:19.091Z,20.10
2019-04-04T12:17:47.526Z,20.20
2019-04-04T12:20:16.383Z,20.20
2019-04-04T12:22:44.856Z,20.10
2019-04-04T12:25:13.368Z,20.10
2019-04-04T12:27:41.903Z,20.00
2019-04-04T12:30:10.686Z,19.90
2019-04-04T12:32:39.206Z,19.90
2019-04-04T12:35:08.289Z,20.10
2019-04-04T12:37:36.729Z,20.00
2019-04-04T12:40:19.439Z,20.00
2019-04-04T12:42:37.754Z,20.00
2019-04-04T12:45:07.679Z,20.10
2019-04-04T12:47:36.204Z,20.20
2019-04-04T12:50:06.150Z,20.30
2019-04-04T12:52:36.817Z,20.40
2019-04-04T12:55:06.633Z,20.50
2019-04-04T12:57:35.074Z,20.60
2019-04-04T13:00:04.430Z,20.80
2019-04-04T13:02:32.943Z,21.00
2019-04-04T13:05:01.401Z,21.00
2019-04-04T13:07:29.853Z,21.00
2019-04-04T13:10:10.698Z,21.30
2019-04-04T13:12:28.456Z,21.30
2019-04-04T13:14:56.933Z,21.30
2019-04-04T13:17:25.371Z,21.40
2019-04-04T13:19:53.801Z,21.50
2019-04-04T13:22:22.266Z,21.40
2019-04-04T13:24:50.717Z,21.40
2019-04-04T13:27:19.201Z,21.40
2019-04-04T13:29:47.648Z,21.30
2019-04-04T13:32:16.129Z,21.30
2019-04-04T13:34:44.566Z,21.30
2019-04-04T13:37:13.017Z,21.30
2019-04-04T13:39:41.449Z,21.40
2019-04-04T13:42:09.913Z,21.60
2019-04-04T13:44:38.394Z,21.70
2019-04-04T13:47:07.410Z,21.70
2019-04-04T13:49:35.867Z,21.70
2019-04-04T13:52:04.450Z,21.70
2019-04-04T13:54:32.891Z,21.70
2019-04-04T13:57:01.371Z,21.50
2019-04-04T13:59:29.876Z,21.50
2019-04-04T14:01:58.374Z,21.50
2019-04-04T14:04:26.810Z,21.30
2019-04-04T14:06:55.281Z,21.30
2019-04-04T14:09:23.727Z,21.40
2019-04-04T14:11:52.207Z,21.40
2019-04-04T14:14:20.703Z,21.40
2019-04-04T14:16:49.166Z,21.40
2019-04-04T14:19:17.670Z,21.30
2019-04-04T14:21:46.113Z,21.10
2019-04-04T14:24:14.622Z,21.20
2019-04-04T14:26:45.769Z,21.20
2019-04-04T14:29:26.313Z,21.30
2019-04-04T14:31:43.441Z,21.20
2019-04-04T14:34:12.333Z,21.20
2019-04-04T14:36:40.832Z,21.10
2019-04-04T14:39:09.789Z,21.10
2019-04-04T14:41:38.292Z,21.00
2019-04-04T14:44:06.802Z,21.10
2019-04-04T14:46:37.153Z,21.10
2019-04-04T14:49:05.471Z,21.10
2019-04-04T14:51:33.908Z,21.00
2019-04-04T14:54:02.417Z,21.10
2019-04-04T14:56:30.923Z,21.10
2019-04-04T14:58:59.395Z,21.10
2019-04-04T15:01:27.929Z,21.00
2019-04-04T15:03:56.391Z,20.90
2019-04-04T15:06:24.888Z,20.80
2019-04-04T15:08:53.339Z,20.70
2019-04-04T15:11:24.316Z,20.50
2019-04-04T15:13:51.974Z,20.40
2019-04-04T15:16:20.623Z,20.40
2019-04-04T15:18:49.074Z,20.40
2019-04-04T15:21:17.530Z,20.40
2019-04-04T15:23:46.048Z,20.40
2019-04-04T15:26:14.563Z,20.40
2019-04-04T15:28:43.072Z,20.30
2019-04-04T15:31:11.546Z,20.30
2019-04-04T15:33:40.027Z,20.30
2019-04-04T15:36:08.531Z,20.30
2019-04-04T15:38:36.983Z,20.40
2019-04-04T15:41:05.570Z,20.40
2019-04-04T15:43:34.017Z,20.40
2019-04-04T15:46:02.461Z,20.40
2019-04-04T15:48:30.906Z,20.50
2019-04-04T15:50:59.342Z,20.60
2019-04-04T15:53:27.807Z,20.60
2019-04-04T15:55:56.272Z,20.60
2019-04-04T15:58:24.761Z,20.70
2019-04-04T16:00:53.186Z,20.70
2019-04-04T16:03:21.672Z,20.70
2019-04-04T16:05:50.170Z,20.60
2019-04-04T16:08:18.630Z,20.70
2019-04-04T16:10:47.092Z,20.70
2019-04-04T16:13:15.652Z,20.70
2019-04-04T16:15:44.095Z,20.80
2019-04-04T16:18:12.571Z,20.80
2019-04-04T16:20:41.085Z,20.70
2019-04-04T16:23:09.634Z,20.70
2019-04-04T16:25:38.087Z,20.70
2019-04-04T16:28:06.561Z,20.80
2019-04-04T16:30:34.998Z,20.80
2019-04-04T16:33:03.460Z,20.70
2019-04-04T16:35:31.937Z,20.70
2019-04-04T16:38:00.391Z,20.60
2019-04-04T16:40:28.928Z,20.60
2019-04-04T16:42:57.367Z,20.60
2019-04-04T16:45:25.818Z,20.50
2019-04-04T16:47:54.249Z,20.40
2019-04-04T16:50:22.733Z,20.40
2019-04-04T16:52:51.251Z,20.30
2019-04-04T16:55:19.799Z,20.10
2019-04-04T16:57:48.268Z,20.10
2019-04-04T17:00:20.482Z,19.90
2019-04-04T17:02:47.650Z,19.80
2019-04-04T17:05:16.130Z,19.70
2019-04-04T17:07:44.631Z,19.60
2019-04-04T17:10:13.157Z,19.50
2019-04-04T17:12:41.614Z,19.30
2019-04-04T17:15:10.217Z,19.30
2019-04-04T17:17:38.735Z,19.20
2019-04-04T17:20:08.655Z,19.00
2019-04-04T17:22:37.085Z,19.00
2019-04-04T17:25:07.183Z,18.80
2019-04-04T17:27:37.141Z,18.70
2019-04-04T17:30:07.435Z,18.50
2019-04-04T17:32:36.182Z,18.40
2019-04-04T17:35:07.419Z,18.30
2019-04-04T17:37:36.038Z,18.20
2019-04-04T17:40:08.481Z,18.20
2019-04-04T17:42:37.052Z,18.00
2019-04-04T17:45:08.052Z,17.90
2019-04-04T17:47:36.645Z,17.90
2019-04-04T17:50:09.720Z,17.80
2019-04-04T17:52:38.205Z,17.70
2019-04-04T17:55:07.800Z,17.60
2019-04-04T17:57:36.246Z,17.60
2019-04-04T18:00:06.899Z,17.40
2019-04-04T18:02:35.377Z,17.40
2019-04-04T18:05:05.701Z,17.40
2019-04-04T18:07:34.174Z,17.30
2019-04-04T18:10:02.683Z,17.30
2019-04-04T18:12:40.270Z,17.20
2019-04-04T18:15:01.325Z,17.10
2019-04-04T18:17:29.769Z,17.00
2019-04-04T18:19:58.230Z,17.10
2019-04-04T18:22:26.688Z,17.20
2019-04-04T18:24:55.170Z,17.30
2019-04-04T18:27:23.625Z,17.30
2019-04-04T18:29:52.073Z,17.40
2019-04-04T18:32:20.524Z,17.40
2019-04-04T18:34:49.004Z,17.50
2019-04-04T18:37:17.459Z,17.50
2019-04-04T18:39:46.011Z,17.60
2019-04-04T18:42:14.531Z,17.60
2019-04-04T18:44:42.993Z,17.70
2019-04-04T18:47:11.427Z,17.60
2019-04-04T18:49:39.937Z,17.60
2019-04-04T18:52:08.372Z,17.60
2019-04-04T18:54:36.845Z,17.60
2019-04-04T18:57:05.369Z,17.60
2019-04-04T18:59:33.835Z,17.40
2019-04-04T19:02:02.277Z,17.40
2019-04-04T19:04:30.757Z,17.30
2019-04-04T19:06:59.193Z,17.30
2019-04-04T19:09:27.679Z,17.30
2019-04-04T19:11:56.134Z,17.30
2019-04-04T19:14:24.673Z,17.20
2019-04-04T19:16:53.200Z,17.20
2019-04-04T19:19:21.686Z,17.20
2019-04-04T19:21:50.217Z,17.20
2019-04-04T19:24:18.676Z,17.20
2019-04-04T19:26:47.127Z,17.20
2019-04-04T19:29:15.605Z,17.10
2019-04-04T19:31:44.080Z,17.10
2019-04-04T19:34:12.538Z,17.10
2019-04-04T19:36:41.998Z,17.00
2019-04-04T19:39:12.212Z,17.00
2019-04-04T19:41:40.690Z,17.00
2019-04-04T19:44:09.132Z,16.90
2019-04-04T19:46:37.602Z,16.80
2019-04-04T19:49:06.118Z,16.80
2019-04-04T19:51:34.582Z,16.70
2019-04-04T19:54:03.052Z,16.60
2019-04-04T19:56:31.504Z,16.60
2019-04-04T19:59:00.020Z,16.50
2019-04-04T20:01:28.493Z,16.40
2019-04-04T20:03:56.924Z,16.40
2019-04-04T20:06:25.421Z,16.40
2019-04-04T20:08:53.862Z,16.40
2019-04-04T20:11:22.367Z,16.30
2019-04-04T20:13:50.861Z,16.30
2019-04-04T20:16:19.339Z,16.30
2019-04-04T20:18:47.835Z,16.30
2019-04-04T20:21:16.292Z,16.30
2019-04-04T20:23:44.742Z,16.30
2019-04-04T20:26:13.210Z,16.30
2019-04-04T20:28:41.660Z,16.20
2019-04-04T20:31:10.232Z,16.20
2019-04-04T20:33:38.725Z,16.20
2019-04-04T20:36:07.200Z,16.10
2019-04-04T20:38:35.814Z,16.10
2019-04-04T20:41:04.356Z,16.10
2019-04-04T20:43:42.784Z,16.00
2019-04-04T20:46:03.419Z,16.00
2019-04-04T20:48:31.943Z,15.90
2019-04-04T20:51:00.472Z,15.90
2019-04-04T20:53:28.926Z,15.80
2019-04-04T20:55:57.395Z,15.70
2019-04-04T20:58:25.881Z,15.60
2019-04-04T21:00:54.344Z,15.50
2019-04-04T21:03:22.788Z,15.50
2019-04-04T21:05:51.254Z,15.60
2019-04-04T21:08:19.710Z,15.60
2019-04-04T21:10:48.163Z,15.50
2019-04-04T21:13:16.593Z,15.50
2019-04-04T21:15:45.059Z,15.50
2019-04-04T21:18:14.071Z,15.60
2019-04-04T21:20:42.722Z,15.60
2019-04-04T21:23:11.245Z,15.50
2019-04-04T21:25:39.709Z,15.50
2019-04-04T21:28:08.171Z,15.50
2019-04-04T21:30:36.702Z,15.50
2019-04-04T21:33:05.152Z,15.50
2019-04-04T21:35:33.708Z,15.40
2019-04-04T21:38:02.141Z,15.40
2019-04-04T21:40:30.606Z,15.40
2019-04-04T21:42:59.128Z,15.40
2019-04-04T21:45:27.681Z,15.30
2019-04-04T21:47:56.143Z,15.30
2019-04-04T21:50:24.594Z,15.20
2019-04-04T21:52:53.044Z,15.20
2019-04-04T21:55:21.495Z,15.30
2019-04-04T21:57:49.938Z,15.20
2019-04-04T22:00:19.135Z,15.20
2019-04-04T22:02:47.582Z,15.20
2019-04-04T22:05:16.088Z,15.20
2019-04-04T22:07:44.539Z,15.20
2019-04-04T22:10:13.117Z,15.10
2019-04-04T22:12:41.594Z,15.10
2019-04-04T22:15:10.357Z,15.10
2019-04-04T22:17:38.811Z,15.00
2019-04-04T22:20:09.277Z,15.00
2019-04-04T22:22:37.730Z,15.00
2019-04-04T22:25:07.202Z,15.00
2019-04-04T22:27:35.643Z,15.00
2019-04-04T22:30:06.330Z,15.00
2019-04-04T22:32:34.794Z,14.90
2019-04-04T22:35:03.703Z,14.80
2019-04-04T22:37:32.158Z,14.80
2019-04-04T22:40:00.615Z,14.80
2019-04-04T22:42:29.083Z,14.70
2019-04-04T22:44:57.534Z,14.70
2019-04-04T22:47:25.997Z,14.70
2019-04-04T22:49:54.442Z,14.60
2019-04-04T22:52:22.899Z,14.60
2019-04-04T22:54:51.353Z,14.50
2019-04-04T22:57:19.819Z,14.50
2019-04-04T22:59:48.269Z,14.40
2019-04-04T23:02:16.744Z,14.40
2019-04-04T23:04:45.258Z,14.40
2019-04-04T23:07:13.725Z,14.30
2019-04-04T23:09:42.189Z,14.30
2019-04-04T23:12:10.677Z,14.30
2019-04-04T23:14:47.998Z,14.20
2019-04-04T23:17:09.374Z,14.20
2019-04-04T23:19:37.830Z,14.10
2019-04-04T23:22:06.367Z,14.10
2019-04-04T23:24:34.810Z,14.10
2019-04-04T23:27:03.288Z,14.00
2019-04-04T23:29:31.728Z,14.00
2019-04-04T23:32:00.185Z,13.90
2019-04-04T23:34:28.632Z,13.90
2019-04-04T23:37:00.148Z,13.90
2019-04-04T23:39:28.600Z,13.90
2019-04-04T23:41:57.050Z,13.80
2019-04-04T23:44:25.514Z,13.80
2019-04-04T23:46:53.964Z,13.80
2019-04-04T23:49:22.416Z,13.80
2019-04-04T23:51:50.867Z,13.70
2019-04-04T23:54:19.308Z,13.70
2019-04-04T23:56:47.771Z,13.70
2019-04-04T23:59:16.211Z,13.60
